sensor_id;sensor_type;location;lat;lon;timestamp;pressure;altitude;pressure_sealevel;temperature;humidity
49645;BME280;36494;50.730;-1.932;2023-12-20T00:00:33;101916.13;;;5.65;100.00
49645;BME280;36494;50.730;-1.932;2023-12-20T00:02:58;101911.68;;;5.63;100.00
49645;BME280;36494;50.730;-1.932;2023-12-20T00:05:24;101910.36;;;5.58;100.00
49645;BME280;36494;50.730;-1.932;2023-12-20T00:07:49;101911.84;;;5.58;100.00
49645;BME280;36494;50.730;-1.932;2023-12-20T00:10:15;101911.15;;;5.61;100.00
49645;BME280;36494;50.730;-1.932;2023-12-20T00:12:40;101911.89;;;5.61;100.00
49645;BME280;36494;50.730;-1.932;2023-12-20T00:15:06;101913.49;;;5.63;100.00
49645;BME280;36494;50.730;-1.932;2023-12-20T00:17:30;101914.93;;;5.59;100.00
49645;BME280;36494;50.730;-1.932;2023-12-20T00:19:56;101917.54;;;5.60;100.00
49645;BME280;36494;50.730;-1.932;2023-12-20T00:22:21;101914.90;;;5.60;100.00
49645;BME280;36494;50.730;-1.932;2023-12-20T00:24:47;101916.39;;;5.62;100.00
49645;BME280;36494;50.730;-1.932;2023-12-20T00:27:12;101925.21;;;5.63;100.00
49645;BME280;36494;50.730;-1.932;2023-12-20T00:29:38;101932.99;;;5.61;100.00
49645;BME280;36494;50.730;-1.932;2023-12-20T00:32:03;101931.46;;;5.68;100.00
49645;BME280;36494;50.730;-1.932;2023-12-20T00:34:28;101930.31;;;5.62;100.00
49645;BME280;36494;50.730;-1.932;2023-12-20T00:36:54;101928.96;;;5.63;100.00
49645;BME280;36494;50.730;-1.932;2023-12-20T00:39:19;101925.89;;;5.54;100.00
49645;BME280;36494;50.730;-1.932;2023-12-20T00:41:45;101923.99;;;5.55;100.00
49645;BME280;36494;50.730;-1.932;2023-12-20T00:44:10;101924.61;;;5.48;100.00
49645;BME280;36494;50.730;-1.932;2023-12-20T00:46:35;101920.36;;;5.56;100.00
49645;BME280;36494;50.730;-1.932;2023-12-20T00:49:01;101915.96;;;5.48;100.00
49645;BME280;36494;50.730;-1.932;2023-12-20T00:51:26;101907.60;;;5.45;100.00
49645;BME280;36494;50.730;-1.932;2023-12-20T00:53:51;101899.82;;;5.46;100.00
49645;BME280;36494;50.730;-1.932;2023-12-20T00:56:16;101893.03;;;5.55;100.00
49645;BME280;36494;50.730;-1.932;2023-12-20T00:58:42;101890.08;;;5.52;100.00
49645;BME280;36494;50.730;-1.932;2023-12-20T01:01:07;101891.51;;;5.54;100.00
49645;BME280;36494;50.730;-1.932;2023-12-20T01:03:32;101891.34;;;5.51;100.00
49645;BME280;36494;50.730;-1.932;2023-12-20T01:05:58;101882.14;;;5.57;100.00
49645;BME280;36494;50.730;-1.932;2023-12-20T01:08:23;101869.85;;;5.53;100.00
49645;BME280;36494;50.730;-1.932;2023-12-20T01:10:48;101866.87;;;5.56;100.00
49645;BME280;36494;50.730;-1.932;2023-12-20T01:13:14;101865.99;;;5.46;100.00
49645;BME280;36494;50.730;-1.932;2023-12-20T01:15:39;101863.27;;;5.42;100.00
49645;BME280;36494;50.730;-1.932;2023-12-20T01:18:05;101855.48;;;5.36;100.00
49645;BME280;36494;50.730;-1.932;2023-12-20T01:20:30;101858.31;;;5.32;100.00
49645;BME280;36494;50.730;-1.932;2023-12-20T01:22:56;101863.80;;;5.38;100.00
49645;BME280;36494;50.730;-1.932;2023-12-20T01:25:24;101863.31;;;5.35;100.00
49645;BME280;36494;50.730;-1.932;2023-12-20T01:27:46;101872.02;;;5.36;100.00
49645;BME280;36494;50.730;-1.932;2023-12-20T01:30:12;101877.28;;;5.42;100.00
49645;BME280;36494;50.730;-1.932;2023-12-20T01:32:37;101879.75;;;5.39;100.00
49645;BME280;36494;50.730;-1.932;2023-12-20T01:35:02;101885.09;;;5.40;100.00
49645;BME280;36494;50.730;-1.932;2023-12-20T01:37:29;101884.88;;;5.46;100.00
49645;BME280;36494;50.730;-1.932;2023-12-20T01:39:53;101882.87;;;5.44;100.00
49645;BME280;36494;50.730;-1.932;2023-12-20T01:42:18;101875.78;;;5.40;100.00
49645;BME280;36494;50.730;-1.932;2023-12-20T01:44:44;101879.60;;;5.47;100.00
49645;BME280;36494;50.730;-1.932;2023-12-20T01:47:09;101880.17;;;5.43;100.00
49645;BME280;36494;50.730;-1.932;2023-12-20T01:49:39;101880.39;;;5.40;100.00
49645;BME280;36494;50.730;-1.932;2023-12-20T01:52:00;101872.49;;;5.40;100.00
49645;BME280;36494;50.730;-1.932;2023-12-20T01:54:25;101864.36;;;5.39;100.00
49645;BME280;36494;50.730;-1.932;2023-12-20T01:56:51;101860.04;;;5.31;100.00
49645;BME280;36494;50.730;-1.932;2023-12-20T01:59:17;101865.78;;;5.33;100.00
49645;BME280;36494;50.730;-1.932;2023-12-20T02:01:41;101867.12;;;5.31;100.00
49645;BME280;36494;50.730;-1.932;2023-12-20T02:04:06;101870.19;;;5.24;100.00
49645;BME280;36494;50.730;-1.932;2023-12-20T02:06:34;101872.42;;;5.26;100.00
49645;BME280;36494;50.730;-1.932;2023-12-20T02:08:57;101878.03;;;5.31;100.00
49645;BME280;36494;50.730;-1.932;2023-12-20T02:11:22;101880.62;;;5.25;100.00
49645;BME280;36494;50.730;-1.932;2023-12-20T02:13:47;101881.38;;;5.24;100.00
49645;BME280;36494;50.730;-1.932;2023-12-20T02:16:12;101874.96;;;5.31;100.00
49645;BME280;36494;50.730;-1.932;2023-12-20T02:18:38;101875.02;;;5.31;100.00
49645;BME280;36494;50.730;-1.932;2023-12-20T02:21:04;101883.99;;;5.29;100.00
49645;BME280;36494;50.730;-1.932;2023-12-20T02:23:28;101887.93;;;5.29;100.00
49645;BME280;36494;50.730;-1.932;2023-12-20T02:25:56;101889.84;;;5.19;100.00
49645;BME280;36494;50.730;-1.932;2023-12-20T02:28:19;101886.33;;;5.19;100.00
49645;BME280;36494;50.730;-1.932;2023-12-20T02:30:45;101887.88;;;5.03;100.00
49645;BME280;36494;50.730;-1.932;2023-12-20T02:33:12;101883.61;;;5.01;100.00
49645;BME280;36494;50.730;-1.932;2023-12-20T02:35:36;101883.24;;;5.06;100.00
49645;BME280;36494;50.730;-1.932;2023-12-20T02:38:01;101885.68;;;5.18;100.00
49645;BME280;36494;50.730;-1.932;2023-12-20T02:40:26;101887.55;;;5.14;100.00
49645;BME280;36494;50.730;-1.932;2023-12-20T02:42:52;101885.78;;;5.13;100.00
49645;BME280;36494;50.730;-1.932;2023-12-20T02:45:17;101885.52;;;5.09;100.00
49645;BME280;36494;50.730;-1.932;2023-12-20T02:47:42;101884.27;;;5.18;100.00
49645;BME280;36494;50.730;-1.932;2023-12-20T02:50:09;101885.25;;;5.22;100.00
49645;BME280;36494;50.730;-1.932;2023-12-20T02:52:33;101876.04;;;5.23;100.00
49645;BME280;36494;50.730;-1.932;2023-12-20T02:54:58;101867.36;;;5.24;100.00
49645;BME280;36494;50.730;-1.932;2023-12-20T02:57:24;101871.27;;;5.23;100.00
49645;BME280;36494;50.730;-1.932;2023-12-20T02:59:49;101873.73;;;5.12;100.00
49645;BME280;36494;50.730;-1.932;2023-12-20T03:02:15;101877.80;;;5.19;100.00
49645;BME280;36494;50.730;-1.932;2023-12-20T03:04:42;101877.47;;;5.25;100.00
49645;BME280;36494;50.730;-1.932;2023-12-20T03:07:05;101874.31;;;5.20;100.00
49645;BME280;36494;50.730;-1.932;2023-12-20T03:09:31;101869.59;;;5.28;100.00
49645;BME280;36494;50.730;-1.932;2023-12-20T03:11:56;101867.53;;;5.21;100.00
49645;BME280;36494;50.730;-1.932;2023-12-20T03:14:21;101865.75;;;5.26;100.00
49645;BME280;36494;50.730;-1.932;2023-12-20T03:16:47;101868.69;;;5.23;100.00
49645;BME280;36494;50.730;-1.932;2023-12-20T03:19:12;101867.97;;;5.22;100.00
49645;BME280;36494;50.730;-1.932;2023-12-20T03:21:37;101862.43;;;5.21;100.00
49645;BME280;36494;50.730;-1.932;2023-12-20T03:24:03;101856.87;;;5.17;100.00
49645;BME280;36494;50.730;-1.932;2023-12-20T03:26:28;101854.13;;;5.25;100.00
49645;BME280;36494;50.730;-1.932;2023-12-20T03:28:53;101856.48;;;5.20;100.00
49645;BME280;36494;50.730;-1.932;2023-12-20T03:31:19;101852.18;;;5.16;100.00
49645;BME280;36494;50.730;-1.932;2023-12-20T03:33:44;101857.86;;;5.19;100.00
49645;BME280;36494;50.730;-1.932;2023-12-20T03:36:10;101859.17;;;5.23;100.00
49645;BME280;36494;50.730;-1.932;2023-12-20T03:38:38;101859.59;;;5.24;100.00
49645;BME280;36494;50.730;-1.932;2023-12-20T03:41:00;101860.77;;;5.21;100.00
49645;BME280;36494;50.730;-1.932;2023-12-20T03:43:26;101858.31;;;5.29;100.00
49645;BME280;36494;50.730;-1.932;2023-12-20T03:45:51;101857.77;;;5.32;100.00
49645;BME280;36494;50.730;-1.932;2023-12-20T03:48:17;101856.31;;;5.37;100.00
49645;BME280;36494;50.730;-1.932;2023-12-20T03:50:43;101855.46;;;5.39;100.00
49645;BME280;36494;50.730;-1.932;2023-12-20T03:53:07;101865.32;;;5.48;100.00
49645;BME280;36494;50.730;-1.932;2023-12-20T03:55:32;101869.60;;;5.50;100.00
49645;BME280;36494;50.730;-1.932;2023-12-20T03:57:58;101871.36;;;5.56;100.00
49645;BME280;36494;50.730;-1.932;2023-12-20T04:00:23;101870.10;;;5.56;100.00
49645;BME280;36494;50.730;-1.932;2023-12-20T04:02:52;101868.49;;;5.54;100.00
49645;BME280;36494;50.730;-1.932;2023-12-20T04:05:14;101868.32;;;5.56;100.00
49645;BME280;36494;50.730;-1.932;2023-12-20T04:07:40;101870.73;;;5.60;100.00
49645;BME280;36494;50.730;-1.932;2023-12-20T04:10:06;101868.51;;;5.59;100.00
49645;BME280;36494;50.730;-1.932;2023-12-20T04:12:30;101863.24;;;5.64;100.00
49645;BME280;36494;50.730;-1.932;2023-12-20T04:14:59;101858.38;;;5.70;100.00
49645;BME280;36494;50.730;-1.932;2023-12-20T04:17:21;101853.39;;;5.71;100.00
49645;BME280;36494;50.730;-1.932;2023-12-20T04:19:46;101855.65;;;5.75;100.00
49645;BME280;36494;50.730;-1.932;2023-12-20T04:22:11;101846.06;;;5.79;100.00
49645;BME280;36494;50.730;-1.932;2023-12-20T04:24:36;101843.75;;;5.82;100.00
49645;BME280;36494;50.730;-1.932;2023-12-20T04:27:02;101845.82;;;5.87;100.00
49645;BME280;36494;50.730;-1.932;2023-12-20T04:29:27;101841.81;;;5.91;100.00
49645;BME280;36494;50.730;-1.932;2023-12-20T04:31:52;101846.11;;;5.95;100.00
49645;BME280;36494;50.730;-1.932;2023-12-20T04:34:17;101840.79;;;5.97;100.00
49645;BME280;36494;50.730;-1.932;2023-12-20T04:36:43;101838.61;;;6.00;100.00
49645;BME280;36494;50.730;-1.932;2023-12-20T04:39:08;101837.19;;;6.02;100.00
49645;BME280;36494;50.730;-1.932;2023-12-20T04:41:34;101838.51;;;6.06;100.00
49645;BME280;36494;50.730;-1.932;2023-12-20T04:43:59;101836.73;;;6.13;100.00
49645;BME280;36494;50.730;-1.932;2023-12-20T04:46:24;101828.69;;;6.13;100.00
49645;BME280;36494;50.730;-1.932;2023-12-20T04:48:50;101826.07;;;6.16;100.00
49645;BME280;36494;50.730;-1.932;2023-12-20T04:51:15;101824.92;;;6.20;100.00
49645;BME280;36494;50.730;-1.932;2023-12-20T04:53:41;101821.16;;;6.26;100.00
49645;BME280;36494;50.730;-1.932;2023-12-20T04:56:06;101820.23;;;6.29;100.00
49645;BME280;36494;50.730;-1.932;2023-12-20T04:58:31;101825.00;;;6.34;100.00
49645;BME280;36494;50.730;-1.932;2023-12-20T05:00:57;101825.01;;;6.40;100.00
49645;BME280;36494;50.730;-1.932;2023-12-20T05:03:22;101824.03;;;6.40;100.00
49645;BME280;36494;50.730;-1.932;2023-12-20T05:05:48;101824.37;;;6.38;100.00
49645;BME280;36494;50.730;-1.932;2023-12-20T05:08:13;101821.04;;;6.46;100.00
49645;BME280;36494;50.730;-1.932;2023-12-20T05:10:38;101817.90;;;6.50;100.00
49645;BME280;36494;50.730;-1.932;2023-12-20T05:13:04;101815.90;;;6.49;100.00
49645;BME280;36494;50.730;-1.932;2023-12-20T05:15:29;101819.19;;;6.55;100.00
49645;BME280;36494;50.730;-1.932;2023-12-20T05:17:55;101814.25;;;6.57;100.00
49645;BME280;36494;50.730;-1.932;2023-12-20T05:20:20;101810.68;;;6.60;100.00
49645;BME280;36494;50.730;-1.932;2023-12-20T05:22:45;101817.26;;;6.60;100.00
49645;BME280;36494;50.730;-1.932;2023-12-20T05:25:14;101814.37;;;6.64;100.00
49645;BME280;36494;50.730;-1.932;2023-12-20T05:27:36;101812.73;;;6.64;100.00
49645;BME280;36494;50.730;-1.932;2023-12-20T05:30:01;101817.43;;;6.65;100.00
49645;BME280;36494;50.730;-1.932;2023-12-20T05:32:26;101825.50;;;6.69;100.00
49645;BME280;36494;50.730;-1.932;2023-12-20T05:34:52;101824.79;;;6.71;100.00
49645;BME280;36494;50.730;-1.932;2023-12-20T05:37:17;101826.35;;;6.73;100.00
49645;BME280;36494;50.730;-1.932;2023-12-20T05:39:43;101829.54;;;6.75;100.00
49645;BME280;36494;50.730;-1.932;2023-12-20T05:42:08;101832.23;;;6.75;100.00
49645;BME280;36494;50.730;-1.932;2023-12-20T05:44:33;101836.25;;;6.75;100.00
49645;BME280;36494;50.730;-1.932;2023-12-20T05:46:59;101823.80;;;6.80;100.00
49645;BME280;36494;50.730;-1.932;2023-12-20T05:49:25;101811.28;;;6.84;100.00
49645;BME280;36494;50.730;-1.932;2023-12-20T05:51:50;101809.42;;;6.87;100.00
49645;BME280;36494;50.730;-1.932;2023-12-20T05:54:16;101798.37;;;6.92;100.00
49645;BME280;36494;50.730;-1.932;2023-12-20T05:56:41;101793.06;;;6.92;100.00
49645;BME280;36494;50.730;-1.932;2023-12-20T05:59:06;101792.91;;;6.91;100.00
49645;BME280;36494;50.730;-1.932;2023-12-20T06:01:31;101794.88;;;6.90;100.00
49645;BME280;36494;50.730;-1.932;2023-12-20T06:03:58;101788.96;;;6.94;100.00
49645;BME280;36494;50.730;-1.932;2023-12-20T06:06:22;101789.50;;;7.00;100.00
49645;BME280;36494;50.730;-1.932;2023-12-20T06:08:47;101793.45;;;6.97;100.00
49645;BME280;36494;50.730;-1.932;2023-12-20T06:11:13;101787.49;;;6.99;100.00
49645;BME280;36494;50.730;-1.932;2023-12-20T06:13:38;101787.32;;;6.97;100.00
49645;BME280;36494;50.730;-1.932;2023-12-20T06:16:05;101794.76;;;7.05;100.00
49645;BME280;36494;50.730;-1.932;2023-12-20T06:18:29;101794.94;;;7.06;100.00
49645;BME280;36494;50.730;-1.932;2023-12-20T06:20:55;101797.79;;;7.12;100.00
49645;BME280;36494;50.730;-1.932;2023-12-20T06:23:20;101800.42;;;7.14;100.00
49645;BME280;36494;50.730;-1.932;2023-12-20T06:25:46;101802.89;;;7.13;100.00
49645;BME280;36494;50.730;-1.932;2023-12-20T06:28:10;101799.87;;;7.14;100.00
49645;BME280;36494;50.730;-1.932;2023-12-20T06:30:35;101801.06;;;7.21;100.00
49645;BME280;36494;50.730;-1.932;2023-12-20T06:33:00;101802.01;;;7.13;100.00
49645;BME280;36494;50.730;-1.932;2023-12-20T06:35:26;101799.09;;;7.19;100.00
49645;BME280;36494;50.730;-1.932;2023-12-20T06:37:51;101800.58;;;7.20;100.00
49645;BME280;36494;50.730;-1.932;2023-12-20T06:40:18;101806.53;;;7.14;100.00
49645;BME280;36494;50.730;-1.932;2023-12-20T06:42:42;101813.06;;;7.16;100.00
49645;BME280;36494;50.730;-1.932;2023-12-20T06:45:07;101816.81;;;7.20;100.00
49645;BME280;36494;50.730;-1.932;2023-12-20T06:47:32;101817.40;;;7.28;100.00
49645;BME280;36494;50.730;-1.932;2023-12-20T06:49:58;101816.50;;;7.28;100.00
49645;BME280;36494;50.730;-1.932;2023-12-20T06:52:26;101813.32;;;7.27;100.00
49645;BME280;36494;50.730;-1.932;2023-12-20T06:54:48;101812.60;;;7.25;100.00
49645;BME280;36494;50.730;-1.932;2023-12-20T06:57:13;101814.37;;;7.29;100.00
49645;BME280;36494;50.730;-1.932;2023-12-20T06:59:39;101805.45;;;7.31;100.00
49645;BME280;36494;50.730;-1.932;2023-12-20T07:02:03;101802.49;;;7.34;100.00
49645;BME280;36494;50.730;-1.932;2023-12-20T07:04:28;101793.05;;;7.29;100.00
49645;BME280;36494;50.730;-1.932;2023-12-20T07:06:54;101791.81;;;7.30;100.00
49645;BME280;36494;50.730;-1.932;2023-12-20T07:09:19;101790.96;;;7.32;100.00
49645;BME280;36494;50.730;-1.932;2023-12-20T07:11:45;101798.24;;;7.28;100.00
49645;BME280;36494;50.730;-1.932;2023-12-20T07:14:10;101790.33;;;7.32;100.00
49645;BME280;36494;50.730;-1.932;2023-12-20T07:16:39;101792.63;;;7.32;100.00
49645;BME280;36494;50.730;-1.932;2023-12-20T07:19:01;101800.02;;;7.32;100.00
49645;BME280;36494;50.730;-1.932;2023-12-20T07:21:26;101797.70;;;7.35;100.00
49645;BME280;36494;50.730;-1.932;2023-12-20T07:23:51;101790.92;;;7.43;100.00
49645;BME280;36494;50.730;-1.932;2023-12-20T07:26:17;101793.91;;;7.35;100.00
49645;BME280;36494;50.730;-1.932;2023-12-20T07:28:45;101796.67;;;7.42;100.00
49645;BME280;36494;50.730;-1.932;2023-12-20T07:31:08;101781.80;;;7.45;100.00
49645;BME280;36494;50.730;-1.932;2023-12-20T07:33:33;101770.24;;;7.46;100.00
49645;BME280;36494;50.730;-1.932;2023-12-20T07:35:59;101780.94;;;7.48;100.00
49645;BME280;36494;50.730;-1.932;2023-12-20T07:38:24;101768.76;;;7.46;100.00
49645;BME280;36494;50.730;-1.932;2023-12-20T07:40:49;101767.67;;;7.53;100.00
49645;BME280;36494;50.730;-1.932;2023-12-20T07:43:15;101764.67;;;7.52;100.00
49645;BME280;36494;50.730;-1.932;2023-12-20T07:45:40;101767.25;;;7.53;100.00
49645;BME280;36494;50.730;-1.932;2023-12-20T07:48:07;101765.14;;;7.56;100.00
49645;BME280;36494;50.730;-1.932;2023-12-20T07:50:30;101769.97;;;7.58;100.00
49645;BME280;36494;50.730;-1.932;2023-12-20T07:52:56;101769.12;;;7.60;100.00
49645;BME280;36494;50.730;-1.932;2023-12-20T07:55:21;101765.49;;;7.65;100.00
49645;BME280;36494;50.730;-1.932;2023-12-20T07:57:47;101764.66;;;7.68;100.00
49645;BME280;36494;50.730;-1.932;2023-12-20T08:00:13;101764.88;;;7.72;100.00
49645;BME280;36494;50.730;-1.932;2023-12-20T08:02:37;101762.69;;;7.71;100.00
49645;BME280;36494;50.730;-1.932;2023-12-20T08:05:07;101773.41;;;7.70;100.00
49645;BME280;36494;50.730;-1.932;2023-12-20T08:07:28;101779.23;;;7.78;100.00
49645;BME280;36494;50.730;-1.932;2023-12-20T08:09:54;101785.42;;;7.74;100.00
49645;BME280;36494;50.730;-1.932;2023-12-20T08:12:19;101785.92;;;7.80;100.00
49645;BME280;36494;50.730;-1.932;2023-12-20T08:14:45;101775.79;;;7.84;100.00
49645;BME280;36494;50.730;-1.932;2023-12-20T08:17:10;101774.45;;;7.89;100.00
49645;BME280;36494;50.730;-1.932;2023-12-20T08:19:35;101773.04;;;7.94;100.00
49645;BME280;36494;50.730;-1.932;2023-12-20T08:22:00;101776.57;;;7.96;100.00
49645;BME280;36494;50.730;-1.932;2023-12-20T08:24:25;101780.98;;;7.95;100.00
49645;BME280;36494;50.730;-1.932;2023-12-20T08:26:51;101769.83;;;8.00;100.00
49645;BME280;36494;50.730;-1.932;2023-12-20T08:29:16;101780.99;;;7.97;100.00
49645;BME280;36494;50.730;-1.932;2023-12-20T08:31:42;101780.35;;;7.99;100.00
49645;BME280;36494;50.730;-1.932;2023-12-20T08:34:07;101786.26;;;8.03;100.00
49645;BME280;36494;50.730;-1.932;2023-12-20T08:36:33;101795.44;;;8.04;100.00
49645;BME280;36494;50.730;-1.932;2023-12-20T08:38:58;101795.90;;;8.07;100.00
49645;BME280;36494;50.730;-1.932;2023-12-20T08:41:26;101797.36;;;8.09;100.00
49645;BME280;36494;50.730;-1.932;2023-12-20T08:43:48;101810.80;;;8.07;100.00
49645;BME280;36494;50.730;-1.932;2023-12-20T08:46:15;101809.14;;;8.16;100.00
49645;BME280;36494;50.730;-1.932;2023-12-20T08:48:39;101814.82;;;8.14;100.00
49645;BME280;36494;50.730;-1.932;2023-12-20T08:51:05;101819.22;;;8.15;100.00
49645;BME280;36494;50.730;-1.932;2023-12-20T08:53:30;101818.63;;;8.24;100.00
49645;BME280;36494;50.730;-1.932;2023-12-20T08:55:55;101809.22;;;8.20;100.00
49645;BME280;36494;50.730;-1.932;2023-12-20T08:58:20;101817.78;;;8.29;100.00
49645;BME280;36494;50.730;-1.932;2023-12-20T09:00:45;101812.60;;;8.26;100.00
49645;BME280;36494;50.730;-1.932;2023-12-20T09:03:11;101808.30;;;8.34;100.00
49645;BME280;36494;50.730;-1.932;2023-12-20T09:05:39;101807.31;;;8.32;100.00
49645;BME280;36494;50.730;-1.932;2023-12-20T09:08:01;101795.08;;;8.31;100.00
49645;BME280;36494;50.730;-1.932;2023-12-20T09:10:26;101802.70;;;8.34;100.00
49645;BME280;36494;50.730;-1.932;2023-12-20T09:12:52;101796.84;;;8.39;100.00
49645;BME280;36494;50.730;-1.932;2023-12-20T09:15:17;101796.38;;;8.42;100.00
49645;BME280;36494;50.730;-1.932;2023-12-20T09:17:42;101795.28;;;8.46;100.00
49645;BME280;36494;50.730;-1.932;2023-12-20T09:20:08;101794.69;;;8.40;100.00
49645;BME280;36494;50.730;-1.932;2023-12-20T09:22:33;101802.21;;;8.46;100.00
49645;BME280;36494;50.730;-1.932;2023-12-20T09:24:58;101797.43;;;8.53;100.00
49645;BME280;36494;50.730;-1.932;2023-12-20T09:27:23;101788.11;;;8.51;100.00
49645;BME280;36494;50.730;-1.932;2023-12-20T09:29:49;101785.51;;;8.60;100.00
49645;BME280;36494;50.730;-1.932;2023-12-20T09:32:14;101785.97;;;8.56;100.00
49645;BME280;36494;50.730;-1.932;2023-12-20T09:34:39;101798.95;;;8.59;100.00
49645;BME280;36494;50.730;-1.932;2023-12-20T09:37:04;101798.93;;;8.62;100.00
49645;BME280;36494;50.730;-1.932;2023-12-20T09:39:29;101797.83;;;8.70;100.00
49645;BME280;36494;50.730;-1.932;2023-12-20T09:42:02;101800.75;;;8.77;100.00
49645;BME280;36494;50.730;-1.932;2023-12-20T09:44:20;101791.82;;;8.80;100.00
49645;BME280;36494;50.730;-1.932;2023-12-20T09:46:49;101792.58;;;8.88;100.00
49645;BME280;36494;50.730;-1.932;2023-12-20T09:49:11;101790.89;;;8.88;100.00
49645;BME280;36494;50.730;-1.932;2023-12-20T09:51:36;101786.51;;;8.97;100.00
49645;BME280;36494;50.730;-1.932;2023-12-20T09:54:03;101790.37;;;8.96;100.00
49645;BME280;36494;50.730;-1.932;2023-12-20T09:56:26;101789.16;;;8.99;100.00
49645;BME280;36494;50.730;-1.932;2023-12-20T09:58:52;101778.54;;;9.01;100.00
49645;BME280;36494;50.730;-1.932;2023-12-20T10:01:18;101772.73;;;9.10;100.00
49645;BME280;36494;50.730;-1.932;2023-12-20T10:03:42;101777.20;;;9.11;100.00
49645;BME280;36494;50.730;-1.932;2023-12-20T10:06:08;101778.15;;;9.05;100.00
49645;BME280;36494;50.730;-1.932;2023-12-20T10:08:33;101779.30;;;9.05;100.00
49645;BME280;36494;50.730;-1.932;2023-12-20T10:10:58;101785.98;;;9.05;100.00
49645;BME280;36494;50.730;-1.932;2023-12-20T10:13:23;101796.91;;;9.17;100.00
49645;BME280;36494;50.730;-1.932;2023-12-20T10:15:49;101796.13;;;9.19;100.00
49645;BME280;36494;50.730;-1.932;2023-12-20T10:18:17;101786.30;;;9.24;100.00
49645;BME280;36494;50.730;-1.932;2023-12-20T10:20:41;101783.60;;;9.23;100.00
49645;BME280;36494;50.730;-1.932;2023-12-20T10:23:05;101790.54;;;9.27;100.00
49645;BME280;36494;50.730;-1.932;2023-12-20T10:25:30;101791.51;;;9.37;100.00
49645;BME280;36494;50.730;-1.932;2023-12-20T10:30:21;101801.32;;;9.35;100.00
49645;BME280;36494;50.730;-1.932;2023-12-20T10:32:46;101813.84;;;9.44;100.00
49645;BME280;36494;50.730;-1.932;2023-12-20T10:35:11;101816.44;;;9.43;100.00
49645;BME280;36494;50.730;-1.932;2023-12-20T10:37:37;101810.78;;;9.47;100.00
49645;BME280;36494;50.730;-1.932;2023-12-20T10:40:03;101818.79;;;9.52;100.00
49645;BME280;36494;50.730;-1.932;2023-12-20T10:42:28;101813.57;;;9.55;100.00
49645;BME280;36494;50.730;-1.932;2023-12-20T10:44:53;101808.25;;;9.52;100.00
49645;BME280;36494;50.730;-1.932;2023-12-20T10:47:19;101807.33;;;9.56;100.00
49645;BME280;36494;50.730;-1.932;2023-12-20T10:49:43;101808.95;;;9.60;100.00
49645;BME280;36494;50.730;-1.932;2023-12-20T10:52:11;101803.55;;;9.56;100.00
49645;BME280;36494;50.730;-1.932;2023-12-20T10:54:38;101788.91;;;9.57;100.00
49645;BME280;36494;50.730;-1.932;2023-12-20T10:57:00;101782.55;;;9.59;100.00
49645;BME280;36494;50.730;-1.932;2023-12-20T10:59:27;101771.87;;;9.61;100.00
49645;BME280;36494;50.730;-1.932;2023-12-20T11:01:51;101774.05;;;9.64;100.00
49645;BME280;36494;50.730;-1.932;2023-12-20T11:04:21;101766.40;;;9.66;100.00
49645;BME280;36494;50.730;-1.932;2023-12-20T11:06:48;101769.99;;;9.61;100.00
49645;BME280;36494;50.730;-1.932;2023-12-20T11:09:13;101766.27;;;9.61;100.00
49645;BME280;36494;50.730;-1.932;2023-12-20T11:11:35;101757.77;;;9.66;100.00
49645;BME280;36494;50.730;-1.932;2023-12-20T11:14:00;101739.08;;;9.65;100.00
49645;BME280;36494;50.730;-1.932;2023-12-20T11:16:22;101736.34;;;9.68;100.00
49645;BME280;36494;50.730;-1.932;2023-12-20T11:18:51;101725.23;;;9.74;100.00
49645;BME280;36494;50.730;-1.932;2023-12-20T11:21:13;101715.76;;;9.75;100.00
49645;BME280;36494;50.730;-1.932;2023-12-20T11:23:38;101700.59;;;9.79;100.00
49645;BME280;36494;50.730;-1.932;2023-12-20T11:26:04;101696.16;;;9.82;100.00
49645;BME280;36494;50.730;-1.932;2023-12-20T11:28:29;101700.24;;;9.90;100.00
49645;BME280;36494;50.730;-1.932;2023-12-20T11:30:55;101700.81;;;9.85;100.00
49645;BME280;36494;50.730;-1.932;2023-12-20T11:33:23;101686.60;;;9.80;100.00
49645;BME280;36494;50.730;-1.932;2023-12-20T11:35:46;101682.39;;;9.84;100.00
49645;BME280;36494;50.730;-1.932;2023-12-20T11:38:10;101677.51;;;9.87;100.00
49645;BME280;36494;50.730;-1.932;2023-12-20T11:40:36;101677.68;;;9.92;100.00
49645;BME280;36494;50.730;-1.932;2023-12-20T11:43:01;101677.96;;;9.93;100.00
49645;BME280;36494;50.730;-1.932;2023-12-20T11:45:26;101668.50;;;9.95;100.00
49645;BME280;36494;50.730;-1.932;2023-12-20T11:47:52;101656.12;;;9.94;100.00
49645;BME280;36494;50.730;-1.932;2023-12-20T11:50:17;101659.09;;;9.94;100.00
49645;BME280;36494;50.730;-1.932;2023-12-20T11:52:42;101664.37;;;10.04;100.00
49645;BME280;36494;50.730;-1.932;2023-12-20T11:55:07;101673.76;;;10.04;100.00
49645;BME280;36494;50.730;-1.932;2023-12-20T11:57:33;101675.01;;;10.09;100.00
49645;BME280;36494;50.730;-1.932;2023-12-20T11:59:58;101673.08;;;10.10;100.00
49645;BME280;36494;50.730;-1.932;2023-12-20T12:02:23;101671.93;;;10.09;100.00
49645;BME280;36494;50.730;-1.932;2023-12-20T12:04:49;101661.82;;;10.15;100.00
49645;BME280;36494;50.730;-1.932;2023-12-20T12:07:14;101653.78;;;10.16;100.00
49645;BME280;36494;50.730;-1.932;2023-12-20T12:09:39;101649.48;;;10.04;100.00
49645;BME280;36494;50.730;-1.932;2023-12-20T12:12:05;101624.28;;;9.94;100.00
49645;BME280;36494;50.730;-1.932;2023-12-20T12:14:30;101624.68;;;10.01;100.00
49645;BME280;36494;50.730;-1.932;2023-12-20T12:16:55;101618.07;;;10.01;100.00
49645;BME280;36494;50.730;-1.932;2023-12-20T12:19:22;101616.20;;;9.99;100.00
49645;BME280;36494;50.730;-1.932;2023-12-20T12:21:46;101619.81;;;10.02;100.00
49645;BME280;36494;50.730;-1.932;2023-12-20T12:24:11;101627.87;;;9.99;100.00
49645;BME280;36494;50.730;-1.932;2023-12-20T12:26:36;101623.57;;;10.00;100.00
49645;BME280;36494;50.730;-1.932;2023-12-20T12:29:01;101615.01;;;9.99;100.00
49645;BME280;36494;50.730;-1.932;2023-12-20T12:31:26;101606.84;;;9.97;100.00